sensor_id;sensor_type;location;lat;lon;timestamp;P1;durP1;ratioP1;P2;durP2;ratioP2
17261;SDS011;9873;52.236;21.002;2023-01-29T00:07:17;12.10;;;6.80;;
17261;SDS011;9873;52.236;21.002;2023-01-29T00:17:24;9.77;;;5.93;;
17261;SDS011;9873;52.236;21.002;2023-01-29T00:27:31;9.13;;;5.77;;
17261;SDS011;9873;52.236;21.002;2023-01-29T00:37:43;9.93;;;6.07;;
17261;SDS011;9873;52.236;21.002;2023-01-29T00:47:47;8.07;;;4.97;;
17261;SDS011;9873;52.236;21.002;2023-01-29T00:57:50;6.80;;;5.30;;
17261;SDS011;9873;52.236;21.002;2023-01-29T01:07:57;7.87;;;4.37;;
17261;SDS011;9873;52.236;21.002;2023-01-29T01:18:02;7.27;;;4.67;;
17261;SDS011;9873;52.236;21.002;2023-01-29T01:28:07;7.00;;;4.07;;
17261;SDS011;9873;52.236;21.002;2023-01-29T01:38:10;6.57;;;4.67;;
17261;SDS011;9873;52.236;21.002;2023-01-29T01:48:23;7.83;;;5.10;;
17261;SDS011;9873;52.236;21.002;2023-01-29T01:58:35;6.53;;;4.40;;
17261;SDS011;9873;52.236;21.002;2023-01-29T02:08:42;7.77;;;4.97;;
17261;SDS011;9873;52.236;21.002;2023-01-29T02:19:15;8.17;;;4.67;;
17261;SDS011;9873;52.236;21.002;2023-01-29T02:29:42;8.33;;;5.10;;
17261;SDS011;9873;52.236;21.002;2023-01-29T02:50:30;9.50;;;5.87;;
17261;SDS011;9873;52.236;21.002;2023-01-29T03:00:47;9.90;;;6.23;;
17261;SDS011;9873;52.236;21.002;2023-01-29T03:10:51;11.10;;;5.67;;
17261;SDS011;9873;52.236;21.002;2023-01-29T03:21:03;11.63;;;6.47;;
17261;SDS011;9873;52.236;21.002;2023-01-29T03:31:27;9.53;;;5.37;;
17261;SDS011;9873;52.236;21.002;2023-01-29T03:42:11;11.13;;;6.53;;
17261;SDS011;9873;52.236;21.002;2023-01-29T04:02:33;9.00;;;5.40;;
17261;SDS011;9873;52.236;21.002;2023-01-29T04:12:49;10.27;;;5.33;;
17261;SDS011;9873;52.236;21.002;2023-01-29T04:23:16;8.17;;;5.07;;
17261;SDS011;9873;52.236;21.002;2023-01-29T04:43:54;8.03;;;5.07;;
17261;SDS011;9873;52.236;21.002;2023-01-29T05:04:20;8.80;;;5.63;;
17261;SDS011;9873;52.236;21.002;2023-01-29T05:14:22;8.17;;;4.80;;
17261;SDS011;9873;52.236;21.002;2023-01-29T05:24:28;8.43;;;5.07;;
17261;SDS011;9873;52.236;21.002;2023-01-29T05:34:30;10.63;;;6.60;;
17261;SDS011;9873;52.236;21.002;2023-01-29T05:44:32;11.10;;;5.33;;
17261;SDS011;9873;52.236;21.002;2023-01-29T05:54:40;9.97;;;5.60;;
17261;SDS011;9873;52.236;21.002;2023-01-29T06:04:42;10.17;;;6.00;;
17261;SDS011;9873;52.236;21.002;2023-01-29T06:14:44;9.27;;;5.80;;
17261;SDS011;9873;52.236;21.002;2023-01-29T06:24:46;13.43;;;6.43;;
17261;SDS011;9873;52.236;21.002;2023-01-29T06:34:50;11.13;;;5.70;;
17261;SDS011;9873;52.236;21.002;2023-01-29T06:44:54;10.07;;;6.60;;
17261;SDS011;9873;52.236;21.002;2023-01-29T06:54:56;11.03;;;6.40;;
17261;SDS011;9873;52.236;21.002;2023-01-29T07:04:58;14.10;;;7.53;;
17261;SDS011;9873;52.236;21.002;2023-01-29T07:15:05;14.77;;;7.37;;
17261;SDS011;9873;52.236;21.002;2023-01-29T07:25:08;13.57;;;6.30;;
17261;SDS011;9873;52.236;21.002;2023-01-29T07:35:10;14.10;;;6.80;;
17261;SDS011;9873;52.236;21.002;2023-01-29T07:45:14;13.60;;;6.47;;
17261;SDS011;9873;52.236;21.002;2023-01-29T07:55:21;8.93;;;4.77;;
17261;SDS011;9873;52.236;21.002;2023-01-29T08:05:26;10.83;;;6.63;;
17261;SDS011;9873;52.236;21.002;2023-01-29T08:15:36;14.60;;;7.10;;
17261;SDS011;9873;52.236;21.002;2023-01-29T08:25:39;12.50;;;6.87;;
17261;SDS011;9873;52.236;21.002;2023-01-29T08:35:48;12.20;;;5.63;;
17261;SDS011;9873;52.236;21.002;2023-01-29T08:45:53;10.33;;;6.47;;
17261;SDS011;9873;52.236;21.002;2023-01-29T08:55:55;11.73;;;5.70;;
17261;SDS011;9873;52.236;21.002;2023-01-29T09:06:00;10.77;;;5.87;;
17261;SDS011;9873;52.236;21.002;2023-01-29T09:16:09;10.60;;;5.83;;
17261;SDS011;9873;52.236;21.002;2023-01-29T09:26:16;11.43;;;6.83;;
17261;SDS011;9873;52.236;21.002;2023-01-29T09:36:20;12.23;;;6.67;;
17261;SDS011;9873;52.236;21.002;2023-01-29T09:46:39;11.80;;;5.80;;
17261;SDS011;9873;52.236;21.002;2023-01-29T09:56:43;9.50;;;6.43;;
17261;SDS011;9873;52.236;21.002;2023-01-29T10:06:52;13.17;;;6.47;;
17261;SDS011;9873;52.236;21.002;2023-01-29T10:27:56;12.40;;;6.57;;
17261;SDS011;9873;52.236;21.002;2023-01-29T10:38:48;11.00;;;6.33;;
17261;SDS011;9873;52.236;21.002;2023-01-29T10:48:50;15.63;;;6.97;;
17261;SDS011;9873;52.236;21.002;2023-01-29T10:59:22;8.83;;;5.13;;
17261;SDS011;9873;52.236;21.002;2023-01-29T11:19:42;15.70;;;10.90;;
17261;SDS011;9873;52.236;21.002;2023-01-29T11:29:50;15.10;;;8.37;;
17261;SDS011;9873;52.236;21.002;2023-01-29T11:39:53;12.57;;;6.10;;
17261;SDS011;9873;52.236;21.002;2023-01-29T11:49:59;14.33;;;8.23;;
17261;SDS011;9873;52.236;21.002;2023-01-29T12:00:06;13.80;;;7.37;;
17261;SDS011;9873;52.236;21.002;2023-01-29T12:10:39;16.60;;;7.90;;
17261;SDS011;9873;52.236;21.002;2023-01-29T12:20:47;17.87;;;8.60;;
17261;SDS011;9873;52.236;21.002;2023-01-29T12:51:54;15.00;;;8.93;;
17261;SDS011;9873;52.236;21.002;2023-01-29T13:02:10;13.07;;;8.83;;
17261;SDS011;9873;52.236;21.002;2023-01-29T13:12:27;16.53;;;8.73;;
17261;SDS011;9873;52.236;21.002;2023-01-29T13:22:34;18.60;;;10.47;;
17261;SDS011;9873;52.236;21.002;2023-01-29T13:32:41;16.03;;;9.00;;
17261;SDS011;9873;52.236;21.002;2023-01-29T13:42:46;15.13;;;9.13;;
17261;SDS011;9873;52.236;21.002;2023-01-29T13:52:56;15.90;;;9.63;;
17261;SDS011;9873;52.236;21.002;2023-01-29T14:23:25;24.13;;;12.47;;
17261;SDS011;9873;52.236;21.002;2023-01-29T14:33:38;20.73;;;11.93;;
17261;SDS011;9873;52.236;21.002;2023-01-29T14:43:47;23.33;;;12.43;;
17261;SDS011;9873;52.236;21.002;2023-01-29T15:04:12;22.93;;;13.00;;
17261;SDS011;9873;52.236;21.002;2023-01-29T15:14:21;26.20;;;14.17;;
17261;SDS011;9873;52.236;21.002;2023-01-29T15:24:27;24.97;;;13.97;;
17261;SDS011;9873;52.236;21.002;2023-01-29T15:34:29;20.57;;;10.83;;
17261;SDS011;9873;52.236;21.002;2023-01-29T15:44:33;21.90;;;11.97;;
17261;SDS011;9873;52.236;21.002;2023-01-29T15:54:35;19.07;;;11.00;;
17261;SDS011;9873;52.236;21.002;2023-01-29T16:04:40;20.07;;;11.57;;
17261;SDS011;9873;52.236;21.002;2023-01-29T16:14:44;23.23;;;11.07;;
17261;SDS011;9873;52.236;21.002;2023-01-29T16:24:54;26.30;;;13.00;;
17261;SDS011;9873;52.236;21.002;2023-01-29T16:34:58;29.67;;;14.47;;
17261;SDS011;9873;52.236;21.002;2023-01-29T16:45:04;27.27;;;14.10;;
17261;SDS011;9873;52.236;21.002;2023-01-29T17:05:21;20.77;;;10.40;;
17261;SDS011;9873;52.236;21.002;2023-01-29T17:15:35;27.30;;;13.07;;
17261;SDS011;9873;52.236;21.002;2023-01-29T17:25:46;27.70;;;14.37;;
17261;SDS011;9873;52.236;21.002;2023-01-29T17:35:49;29.50;;;15.57;;
17261;SDS011;9873;52.236;21.002;2023-01-29T17:45:54;27.63;;;14.37;;
17261;SDS011;9873;52.236;21.002;2023-01-29T17:55:59;32.00;;;16.00;;
17261;SDS011;9873;52.236;21.002;2023-01-29T18:06:01;23.67;;;12.57;;
17261;SDS011;9873;52.236;21.002;2023-01-29T18:16:08;27.23;;;14.30;;
17261;SDS011;9873;52.236;21.002;2023-01-29T18:26:16;24.73;;;14.73;;
17261;SDS011;9873;52.236;21.002;2023-01-29T18:36:18;31.87;;;16.00;;
17261;SDS011;9873;52.236;21.002;2023-01-29T18:46:21;25.97;;;13.07;;
17261;SDS011;9873;52.236;21.002;2023-01-29T18:56:25;31.67;;;14.70;;
17261;SDS011;9873;52.236;21.002;2023-01-29T19:06:33;26.50;;;15.23;;
17261;SDS011;9873;52.236;21.002;2023-01-29T19:16:38;29.57;;;15.53;;
17261;SDS011;9873;52.236;21.002;2023-01-29T19:26:41;22.93;;;11.43;;
17261;SDS011;9873;52.236;21.002;2023-01-29T19:36:46;29.07;;;15.07;;
17261;SDS011;9873;52.236;21.002;2023-01-29T19:46:51;27.10;;;14.00;;
17261;SDS011;9873;52.236;21.002;2023-01-29T19:56:56;27.40;;;13.70;;
17261;SDS011;9873;52.236;21.002;2023-01-29T20:06:58;30.30;;;13.77;;
17261;SDS011;9873;52.236;21.002;2023-01-29T20:17:00;24.40;;;11.83;;
17261;SDS011;9873;52.236;21.002;2023-01-29T20:27:08;30.70;;;15.77;;
17261;SDS011;9873;52.236;21.002;2023-01-29T20:37:11;26.97;;;14.10;;
17261;SDS011;9873;52.236;21.002;2023-01-29T20:47:13;27.73;;;13.47;;
17261;SDS011;9873;52.236;21.002;2023-01-29T20:57:18;27.93;;;15.00;;
17261;SDS011;9873;52.236;21.002;2023-01-29T21:07:23;24.93;;;13.43;;
17261;SDS011;9873;52.236;21.002;2023-01-29T21:17:32;33.72;;;21.67;;
17261;SDS011;9873;52.236;21.002;2023-01-29T21:27:37;30.07;;;16.27;;
17261;SDS011;9873;52.236;21.002;2023-01-29T21:37:44;27.97;;;14.37;;
17261;SDS011;9873;52.236;21.002;2023-01-29T21:47:46;28.47;;;14.83;;
17261;SDS011;9873;52.236;21.002;2023-01-29T21:57:51;25.03;;;12.67;;
17261;SDS011;9873;52.236;21.002;2023-01-29T22:07:53;32.60;;;15.10;;
17261;SDS011;9873;52.236;21.002;2023-01-29T22:17:56;30.67;;;14.60;;
17261;SDS011;9873;52.236;21.002;2023-01-29T22:27:59;26.33;;;13.83;;
17261;SDS011;9873;52.236;21.002;2023-01-29T22:38:03;31.60;;;15.60;;
17261;SDS011;9873;52.236;21.002;2023-01-29T22:48:05;27.17;;;13.80;;
17261;SDS011;9873;52.236;21.002;2023-01-29T22:58:08;30.40;;;15.40;;
17261;SDS011;9873;52.236;21.002;2023-01-29T23:08:11;28.67;;;15.63;;
17261;SDS011;9873;52.236;21.002;2023-01-29T23:18:13;28.13;;;15.70;;
17261;SDS011;9873;52.236;21.002;2023-01-29T23:28:15;30.93;;;15.20;;
17261;SDS011;9873;52.236;21.002;2023-01-29T23:38:22;27.57;;;14.77;;
17261;SDS011;9873;52.236;21.002;2023-01-29T23:48:24;30.63;;;15.40;;
17261;SDS011;9873;52.236;21.002;2023-01-29T23:58:29;30.60;;;15.67;;
